createdAt,value
2022-10-01T00:00:05.260Z,20.42
2022-10-01T00:02:31.839Z,20.47
2022-10-01T00:04:58.406Z,20.60
2022-10-01T00:07:24.946Z,20.47
2022-10-01T00:09:51.488Z,20.48
2022-10-01T00:12:18.070Z,20.51
2022-10-01T00:14:45.122Z,20.54
2022-10-01T00:17:11.673Z,20.48
2022-10-01T00:19:38.213Z,20.48
2022-10-01T00:22:04.773Z,20.46
2022-10-01T00:24:31.337Z,20.44
2022-10-01T00:26:57.896Z,20.38
2022-10-01T00:29:24.448Z,20.42
2022-10-01T00:31:51.134Z,20.40
2022-10-01T00:34:17.723Z,20.43
2022-10-01T00:36:44.257Z,20.31
2022-10-01T00:39:11.864Z,20.42
2022-10-01T00:41:38.602Z,20.34
2022-10-01T00:44:28.465Z,20.44
2022-10-01T00:46:57.346Z,20.40
2022-10-01T00:49:26.945Z,20.38
2022-10-01T00:52:03.298Z,20.44
2022-10-01T00:54:41.873Z,20.34
2022-10-01T00:57:08.903Z,20.33
2022-10-01T01:02:02.392Z,20.26
2022-10-01T01:04:29.022Z,20.26
2022-10-01T01:06:58.745Z,20.24
2022-10-01T01:09:34.699Z,20.21
2022-10-01T01:12:30.329Z,20.30
2022-10-01T01:15:09.957Z,20.21
2022-10-01T01:17:41.575Z,20.21
2022-10-01T01:20:16.858Z,20.17
2022-10-01T01:22:50.913Z,20.25
2022-10-01T01:25:22.735Z,20.30
2022-10-01T01:28:08.425Z,20.22
2022-10-01T01:30:36.399Z,20.17
2022-10-01T01:33:11.940Z,20.21
2022-10-01T01:35:44.175Z,20.21
2022-10-01T01:38:14.514Z,20.20
2022-10-01T01:40:43.324Z,20.21
2022-10-01T01:43:24.297Z,20.17
2022-10-01T01:45:55.144Z,20.21
2022-10-01T01:48:24.010Z,20.19
2022-10-01T01:51:05.003Z,20.24
2022-10-01T01:53:32.180Z,20.11
2022-10-01T01:56:00.399Z,20.22
2022-10-01T01:58:28.251Z,20.12
2022-10-01T02:00:55.035Z,20.17
2022-10-01T02:03:24.320Z,20.11
2022-10-01T02:06:02.436Z,20.10
2022-10-01T02:08:33.989Z,20.16
2022-10-01T02:11:38.733Z,20.05
2022-10-01T02:14:47.430Z,20.18
2022-10-01T02:17:16.687Z,20.03
2022-10-01T02:19:52.104Z,20.10
2022-10-01T02:22:54.577Z,20.03
2022-10-01T02:25:27.041Z,19.99
2022-10-01T02:28:01.621Z,20.07
2022-10-01T02:30:30.289Z,19.98
2022-10-01T02:32:59.325Z,20.04
2022-10-01T02:35:26.584Z,19.96
2022-10-01T02:37:55.630Z,20.02
2022-10-01T02:40:26.267Z,19.91
2022-10-01T02:42:55.820Z,19.98
2022-10-01T02:45:23.623Z,19.91
2022-10-01T02:47:55.763Z,19.95
2022-10-01T02:50:24.381Z,19.94
2022-10-01T02:53:01.300Z,20.00
2022-10-01T02:55:30.624Z,19.95
2022-10-01T02:57:57.618Z,19.89
2022-10-01T03:00:25.192Z,19.88
2022-10-01T03:02:51.949Z,19.94
2022-10-01T03:05:18.891Z,19.97
2022-10-01T03:07:45.545Z,19.91
2022-10-01T03:10:12.887Z,19.97
2022-10-01T03:12:45.146Z,19.96
2022-10-01T03:15:13.116Z,19.90
2022-10-01T03:17:39.673Z,19.87
2022-10-01T03:20:07.144Z,19.96
2022-10-01T03:22:33.974Z,19.87
2022-10-01T03:25:00.507Z,19.86
2022-10-01T03:27:27.131Z,19.97
2022-10-01T03:29:53.735Z,19.88
2022-10-01T03:32:20.592Z,19.94
2022-10-01T03:34:47.195Z,19.90
2022-10-01T03:37:13.988Z,19.90
2022-10-01T03:39:40.538Z,19.82
2022-10-01T03:42:07.139Z,19.80
2022-10-01T03:44:34.116Z,19.96
2022-10-01T03:47:00.671Z,19.87
2022-10-01T03:49:27.896Z,19.98
2022-10-01T03:51:54.531Z,19.85
2022-10-01T03:54:21.261Z,19.97
2022-10-01T03:56:48.954Z,19.95
2022-10-01T03:59:15.565Z,19.91
2022-10-01T04:01:42.222Z,19.93
2022-10-01T04:04:08.945Z,20.02
2022-10-01T04:06:35.601Z,19.89
2022-10-01T04:09:02.191Z,19.88
2022-10-01T04:11:28.755Z,19.96
2022-10-01T04:13:56.024Z,19.96
2022-10-01T04:16:22.615Z,20.03
2022-10-01T04:18:49.699Z,19.84
2022-10-01T04:21:16.481Z,19.86
2022-10-01T04:23:43.054Z,19.91
2022-10-01T04:26:09.672Z,19.95
2022-10-01T04:28:36.529Z,19.87
2022-10-01T04:31:21.584Z,19.97
2022-10-01T04:33:48.172Z,19.84
2022-10-01T04:36:14.772Z,19.96
2022-10-01T04:38:41.311Z,19.84
2022-10-01T04:41:08.911Z,19.86
2022-10-01T04:43:35.845Z,19.79
2022-10-01T04:46:02.376Z,19.86
2022-10-01T04:48:28.918Z,19.94
2022-10-01T04:50:55.526Z,19.90
2022-10-01T04:53:22.059Z,19.85
2022-10-01T04:55:48.634Z,19.82
2022-10-01T04:58:15.276Z,19.77
2022-10-01T05:00:41.854Z,19.84
2022-10-01T05:03:08.438Z,19.76
2022-10-01T05:05:35.293Z,19.78
2022-10-01T05:08:02.207Z,19.83
2022-10-01T05:10:28.793Z,19.85
2022-10-01T05:12:55.381Z,19.83
2022-10-01T05:15:22.001Z,19.70
2022-10-01T05:17:48.530Z,19.78
2022-10-01T05:20:17.931Z,19.70
2022-10-01T05:22:45.477Z,19.70
2022-10-01T05:25:12.099Z,19.72
2022-10-01T05:27:40.479Z,19.75
2022-10-01T05:30:08.905Z,19.61
2022-10-01T05:32:36.033Z,19.67
2022-10-01T05:35:03.649Z,19.70
2022-10-01T05:37:30.180Z,19.70
2022-10-01T05:39:56.729Z,19.63
2022-10-01T05:42:23.270Z,19.58
2022-10-01T05:44:50.087Z,19.61
2022-10-01T05:47:17.450Z,19.50
2022-10-01T05:49:44.699Z,19.59
2022-10-01T05:52:12.330Z,19.68
2022-10-01T05:54:38.952Z,19.61
2022-10-01T05:57:06.288Z,19.64
2022-10-01T05:59:32.861Z,19.61
2022-10-01T06:01:59.569Z,19.62
2022-10-01T06:04:26.436Z,19.61
2022-10-01T06:06:56.255Z,19.62
2022-10-01T06:09:22.793Z,19.65
2022-10-01T06:11:49.642Z,19.62
2022-10-01T06:14:16.770Z,19.62
2022-10-01T06:16:43.426Z,19.63
2022-10-01T06:19:10.246Z,19.58
2022-10-01T06:21:37.451Z,19.59
2022-10-01T06:24:04.345Z,19.58
2022-10-01T06:26:31.226Z,19.65
2022-10-01T06:28:57.829Z,19.54
2022-10-01T06:31:25.100Z,19.67
2022-10-01T06:33:51.850Z,19.56
2022-10-01T06:36:18.394Z,19.66
2022-10-01T06:38:48.227Z,19.70
2022-10-01T06:41:14.901Z,19.70
2022-10-01T06:43:41.496Z,19.69
2022-10-01T06:46:08.377Z,19.72
2022-10-01T06:48:36.599Z,19.69
2022-10-01T06:51:03.812Z,19.68
2022-10-01T06:53:30.497Z,19.71
2022-10-01T06:55:57.158Z,19.69
2022-10-01T06:58:28.043Z,19.70
2022-10-01T07:01:02.108Z,19.80
2022-10-01T07:03:29.294Z,19.80
2022-10-01T07:06:04.361Z,19.88
2022-10-01T07:08:30.913Z,19.86
2022-10-01T07:11:04.774Z,19.90
2022-10-01T07:13:31.488Z,19.89
2022-10-01T07:15:58.088Z,19.90
2022-10-01T07:18:24.710Z,19.88
2022-10-01T07:20:51.425Z,19.89
2022-10-01T07:23:18.032Z,19.94
2022-10-01T07:25:45.168Z,19.85
2022-10-01T07:28:16.836Z,19.94
2022-10-01T07:31:06.636Z,19.92
2022-10-01T07:33:33.414Z,20.01
2022-10-01T07:36:01.521Z,20.00
2022-10-01T07:38:28.329Z,20.03
2022-10-01T07:40:54.959Z,20.02
2022-10-01T07:43:22.143Z,20.09
2022-10-01T07:45:50.413Z,20.12
2022-10-01T07:48:17.073Z,20.16
2022-10-01T07:50:47.275Z,20.17
2022-10-01T07:53:13.932Z,20.13
2022-10-01T07:55:40.473Z,20.13
2022-10-01T07:58:07.150Z,20.20
2022-10-01T08:00:34.340Z,20.21
2022-10-01T08:03:01.453Z,20.25
2022-10-01T08:05:30.448Z,20.28
2022-10-01T08:08:01.581Z,20.31
2022-10-01T08:10:28.649Z,20.33
2022-10-01T08:13:08.328Z,20.35
2022-10-01T08:15:35.429Z,20.36
2022-10-01T08:18:03.233Z,20.32
2022-10-01T08:20:29.988Z,20.48
2022-10-01T08:23:25.538Z,20.45
2022-10-01T08:25:52.073Z,20.44
2022-10-01T08:28:18.762Z,20.40
2022-10-01T08:30:45.365Z,20.50
2022-10-01T08:33:12.828Z,20.53
2022-10-01T08:35:40.486Z,20.51
2022-10-01T08:38:07.498Z,20.57
2022-10-01T08:40:38.243Z,20.57
2022-10-01T08:43:07.598Z,20.57
2022-10-01T08:45:46.655Z,20.61
2022-10-01T08:48:47.321Z,20.59
2022-10-01T08:51:38.633Z,20.51
2022-10-01T08:54:32.448Z,20.50
2022-10-01T08:57:01.927Z,20.57
2022-10-01T08:59:44.020Z,20.68
2022-10-01T09:02:30.248Z,20.65
2022-10-01T09:05:02.964Z,20.57
2022-10-01T09:07:57.287Z,20.53
2022-10-01T09:10:42.178Z,20.48
2022-10-01T09:13:50.240Z,20.60
2022-10-01T09:16:25.923Z,20.66
2022-10-01T09:19:15.188Z,20.71
2022-10-01T09:22:03.450Z,20.75
2022-10-01T09:24:53.274Z,20.76
2022-10-01T09:27:25.747Z,20.80
2022-10-01T09:30:15.827Z,20.80
2022-10-01T09:32:50.597Z,20.92
2022-10-01T09:35:29.122Z,20.85
2022-10-01T09:38:03.388Z,20.91
2022-10-01T09:40:38.498Z,20.88
2022-10-01T09:43:08.234Z,20.88
2022-10-01T09:45:35.208Z,20.91
2022-10-01T09:48:16.340Z,20.94
2022-10-01T09:50:52.328Z,20.79
2022-10-01T09:53:20.556Z,20.75
2022-10-01T09:55:56.435Z,20.81
2022-10-01T09:58:25.205Z,20.76
2022-10-01T10:00:53.617Z,20.67
2022-10-01T10:03:31.369Z,20.75
2022-10-01T10:05:59.897Z,20.80
2022-10-01T10:08:31.905Z,20.79
2022-10-01T10:11:00.879Z,20.70
2022-10-01T10:13:34.887Z,20.79
2022-10-01T10:16:10.858Z,20.72
2022-10-01T10:18:39.141Z,20.71
2022-10-01T10:21:12.467Z,20.66
2022-10-01T10:23:53.870Z,20.68
2022-10-01T10:26:43.433Z,20.56
2022-10-01T10:29:35.282Z,20.67
2022-10-01T10:32:14.765Z,20.61
2022-10-01T10:34:46.958Z,20.64
2022-10-01T10:37:16.818Z,20.62
2022-10-01T10:39:47.421Z,20.66
2022-10-01T10:42:15.771Z,20.56
2022-10-01T10:44:43.701Z,20.56
2022-10-01T10:47:15.686Z,20.57
2022-10-01T10:49:48.965Z,20.53
2022-10-01T10:52:36.921Z,20.55
2022-10-01T10:55:23.696Z,20.52
2022-10-01T10:57:53.327Z,20.50
2022-10-01T11:00:24.183Z,20.50
2022-10-01T11:03:04.343Z,20.51
2022-10-01T11:05:32.801Z,20.53
2022-10-01T11:08:07.237Z,20.55
2022-10-01T11:10:49.610Z,20.55
2022-10-01T11:13:39.345Z,20.56
2022-10-01T11:16:33.411Z,20.65
2022-10-01T11:19:05.780Z,20.61
2022-10-01T11:21:38.036Z,20.70
2022-10-01T11:24:43.567Z,20.77
2022-10-01T11:27:18.451Z,20.76
2022-10-01T11:29:50.993Z,20.77
2022-10-01T11:32:45.434Z,20.80
2022-10-01T11:35:18.755Z,20.82
2022-10-01T11:37:54.898Z,20.72
2022-10-01T11:40:26.602Z,20.75
2022-10-01T11:43:02.945Z,20.79
2022-10-01T11:45:34.295Z,20.78
2022-10-01T11:48:06.157Z,20.76
2022-10-01T11:50:39.217Z,20.78
2022-10-01T11:53:11.796Z,20.74
2022-10-01T11:56:02.945Z,20.74
2022-10-01T11:58:51.217Z,20.71
2022-10-01T12:01:23.877Z,20.71
2022-10-01T12:03:53.075Z,20.73
2022-10-01T12:06:41.317Z,20.75
2022-10-01T12:09:14.809Z,20.77
2022-10-01T12:11:54.376Z,20.78
2022-10-01T12:14:25.058Z,20.78
2022-10-01T12:16:55.238Z,20.83
2022-10-01T12:19:33.769Z,20.80
2022-10-01T12:22:10.792Z,20.82
2022-10-01T12:24:44.706Z,20.78
2022-10-01T12:27:35.050Z,20.82
2022-10-01T12:30:05.865Z,20.78
2022-10-01T12:32:54.263Z,20.78
2022-10-01T12:35:39.190Z,20.79
2022-10-01T12:38:36.953Z,20.76
2022-10-01T12:41:30.995Z,20.79
2022-10-01T12:44:35.154Z,20.79
2022-10-01T12:47:16.801Z,20.87
2022-10-01T12:50:01.863Z,20.84
2022-10-01T12:52:50.505Z,20.86
2022-10-01T12:55:34.324Z,20.91
2022-10-01T12:58:16.716Z,20.97
2022-10-01T13:01:18.789Z,20.96
2022-10-01T13:04:03.371Z,21.04
2022-10-01T13:06:44.610Z,20.98
2022-10-01T13:09:49.127Z,20.93
2022-10-01T13:12:36.923Z,20.95
2022-10-01T13:15:04.844Z,20.90
2022-10-01T13:17:59.971Z,20.88
2022-10-01T13:20:58.590Z,20.88
2022-10-01T13:24:04.953Z,20.85
2022-10-01T13:26:57.819Z,20.88
2022-10-01T13:29:31.165Z,20.86
2022-10-01T13:32:02.827Z,20.88
2022-10-01T13:34:40.751Z,20.87
2022-10-01T13:37:17.341Z,20.86
2022-10-01T13:39:47.439Z,20.95
2022-10-01T13:42:38.393Z,20.89
2022-10-01T13:45:30.728Z,20.93
2022-10-01T13:48:21.309Z,20.97
2022-10-01T13:51:03.580Z,21.03
2022-10-01T13:53:53.344Z,20.98
2022-10-01T13:56:36.704Z,21.01
2022-10-01T13:59:04.761Z,20.93
2022-10-01T14:01:41.751Z,21.01
2022-10-01T14:04:48.833Z,20.98
2022-10-01T14:07:22.277Z,20.95
2022-10-01T14:09:56.149Z,20.90
2022-10-01T14:12:52.236Z,20.95
2022-10-01T14:16:00.224Z,20.92
2022-10-01T14:18:30.714Z,20.96
2022-10-01T14:21:00.091Z,20.95
2022-10-01T14:23:40.897Z,20.97
2022-10-01T14:26:12.737Z,21.03
2022-10-01T14:29:00.195Z,21.02
2022-10-01T14:31:50.095Z,21.02
2022-10-01T14:35:02.447Z,20.99
2022-10-01T14:37:29.252Z,21.02
2022-10-01T14:40:13.227Z,21.01
2022-10-01T14:42:39.772Z,20.99
2022-10-01T14:45:17.194Z,21.01
2022-10-01T14:47:43.779Z,20.97
2022-10-01T14:50:12.251Z,20.97
2022-10-01T14:52:40.646Z,21.01
2022-10-01T14:55:12.974Z,21.01
2022-10-01T14:57:42.522Z,21.02
2022-10-01T15:00:15.820Z,20.99
2022-10-01T15:02:47.523Z,20.96
2022-10-01T15:05:31.832Z,20.98
2022-10-01T15:07:59.665Z,20.97
2022-10-01T15:10:27.366Z,20.96
2022-10-01T15:12:55.307Z,21.01
2022-10-01T15:15:34.711Z,21.02
2022-10-01T15:18:04.263Z,21.03
2022-10-01T15:20:31.025Z,20.96
2022-10-01T15:23:01.289Z,20.97
2022-10-01T15:25:29.618Z,21.01
2022-10-01T15:27:56.715Z,20.97
2022-10-01T15:30:26.024Z,20.96
2022-10-01T15:32:52.693Z,20.99
2022-10-01T15:35:22.075Z,21.01
2022-10-01T15:37:50.461Z,21.01
2022-10-01T15:40:23.824Z,20.96
2022-10-01T15:43:11.753Z,20.97
2022-10-01T15:45:38.725Z,20.94
2022-10-01T15:48:05.345Z,20.95
2022-10-01T15:50:36.515Z,20.97
2022-10-01T15:53:18.882Z,20.99
2022-10-01T15:55:49.487Z,20.97
2022-10-01T15:58:17.630Z,20.95
2022-10-01T16:00:47.637Z,20.99
2022-10-01T16:03:26.007Z,20.95
2022-10-01T16:05:55.051Z,20.94
2022-10-01T16:08:24.644Z,20.91
2022-10-01T16:11:17.835Z,20.90
2022-10-01T16:13:49.858Z,20.89
2022-10-01T16:16:28.651Z,20.93
2022-10-01T16:19:33.682Z,20.84
2022-10-01T16:22:33.409Z,20.90
2022-10-01T16:25:07.167Z,20.89
2022-10-01T16:27:50.303Z,20.86
2022-10-01T16:30:27.003Z,20.83
2022-10-01T16:33:02.527Z,20.86
2022-10-01T16:35:35.864Z,20.84
2022-10-01T16:38:02.931Z,20.79
2022-10-01T16:40:34.182Z,20.82
2022-10-01T16:43:00.929Z,20.79
2022-10-01T16:45:33.617Z,20.83
2022-10-01T16:48:00.635Z,20.82
2022-10-01T16:50:27.217Z,20.83
2022-10-01T16:52:55.581Z,20.86
2022-10-01T16:55:24.653Z,20.80
2022-10-01T16:57:52.797Z,20.80
2022-10-01T17:00:20.783Z,20.84
2022-10-01T17:02:47.847Z,20.84
2022-10-01T17:05:28.526Z,20.90
2022-10-01T17:08:01.061Z,20.84
2022-10-01T17:10:32.641Z,20.91
2022-10-01T17:12:59.717Z,20.93
2022-10-01T17:15:28.303Z,20.93
2022-10-01T17:17:55.781Z,20.89
2022-10-01T17:20:23.090Z,20.96
2022-10-01T17:22:50.147Z,20.81
2022-10-01T17:25:20.253Z,20.92
2022-10-01T17:27:46.847Z,20.94
2022-10-01T17:30:13.725Z,20.95
2022-10-01T17:32:40.327Z,20.93
2022-10-01T17:35:07.809Z,20.88
2022-10-01T17:37:34.752Z,20.89
2022-10-01T17:40:01.562Z,20.86
2022-10-01T17:42:28.216Z,20.89
2022-10-01T17:44:54.931Z,20.83
2022-10-01T17:47:21.427Z,20.83
2022-10-01T17:49:47.955Z,20.77
2022-10-01T17:52:14.614Z,20.89
2022-10-01T17:54:41.138Z,20.81
2022-10-01T17:57:10.814Z,20.84
2022-10-01T17:59:38.060Z,20.82
2022-10-01T18:02:29.545Z,20.83
2022-10-01T18:04:55.246Z,20.81
2022-10-01T18:07:21.790Z,20.78
2022-10-01T18:09:48.386Z,20.81
2022-10-01T18:12:15.533Z,20.82
2022-10-01T18:14:42.129Z,20.78
2022-10-01T18:17:08.685Z,20.79
2022-10-01T18:22:21.930Z,20.72
2022-10-01T18:24:48.464Z,20.79
2022-10-01T18:27:15.203Z,20.78
2022-10-01T18:29:41.764Z,20.78
2022-10-01T18:32:21.364Z,20.83
2022-10-01T18:34:55.269Z,20.73
2022-10-01T18:37:37.670Z,20.80
2022-10-01T18:40:13.157Z,20.86
2022-10-01T18:42:39.508Z,20.77
2022-10-01T18:45:14.067Z,20.84
2022-10-01T18:48:14.693Z,20.77
2022-10-01T18:50:53.399Z,20.79
2022-10-01T18:53:28.064Z,20.78
2022-10-01T18:56:09.829Z,20.80
2022-10-01T18:58:49.598Z,20.77
2022-10-01T19:01:25.373Z,20.74
2022-10-01T19:04:13.085Z,20.78
2022-10-01T19:06:39.590Z,20.72
2022-10-01T19:09:27.778Z,20.73
2022-10-01T19:12:12.421Z,20.80
2022-10-01T19:14:47.922Z,20.75
2022-10-01T19:17:29.830Z,20.70
2022-10-01T19:20:17.188Z,20.70
2022-10-01T19:23:08.090Z,20.72
2022-10-01T19:25:50.563Z,20.63
2022-10-01T19:28:38.018Z,20.67
2022-10-01T19:31:16.580Z,20.65
2022-10-01T19:33:50.659Z,20.66
2022-10-01T19:36:34.215Z,20.63
2022-10-01T19:39:04.896Z,20.58
2022-10-01T19:41:47.415Z,20.67
2022-10-01T19:44:26.337Z,20.61
2022-10-01T19:46:58.148Z,20.57
2022-10-01T19:49:32.098Z,20.52
2022-10-01T19:52:01.458Z,20.55
2022-10-01T19:54:33.444Z,20.60
2022-10-01T19:57:05.164Z,20.56
2022-10-01T19:59:31.766Z,20.55
2022-10-01T20:02:03.572Z,20.57
2022-10-01T20:04:38.372Z,20.51
2022-10-01T20:07:24.514Z,20.51
2022-10-01T20:10:05.870Z,20.54
2022-10-01T20:12:44.369Z,20.54
2022-10-01T20:15:44.651Z,20.48
2022-10-01T20:18:27.149Z,20.42
2022-10-01T20:21:07.633Z,20.41
2022-10-01T20:24:03.396Z,20.42
2022-10-01T20:26:53.894Z,20.40
2022-10-01T20:29:36.864Z,20.43
2022-10-01T20:32:15.718Z,20.42
2022-10-01T20:35:06.574Z,20.42
2022-10-01T20:37:53.801Z,20.36
2022-10-01T20:40:27.763Z,20.31
2022-10-01T20:43:07.328Z,20.35
2022-10-01T20:45:35.502Z,20.23
2022-10-01T20:48:23.533Z,20.31
2022-10-01T20:50:53.895Z,20.36
2022-10-01T20:53:32.337Z,20.34
2022-10-01T20:56:04.176Z,20.32
2022-10-01T20:58:46.500Z,20.29
2022-10-01T21:01:18.032Z,20.32
2022-10-01T21:03:47.031Z,20.17
2022-10-01T21:06:17.372Z,20.27
2022-10-01T21:08:57.176Z,20.31
2022-10-01T21:11:45.381Z,20.33
2022-10-01T21:14:34.502Z,20.25
2022-10-01T21:17:07.189Z,20.23
2022-10-01T21:19:39.568Z,20.19
2022-10-01T21:22:33.827Z,20.30
2022-10-01T21:25:15.225Z,20.18
2022-10-01T21:28:05.165Z,20.18
2022-10-01T21:30:53.042Z,20.18
2022-10-01T21:33:28.343Z,20.17
2022-10-01T21:36:11.648Z,20.19
2022-10-01T21:38:45.545Z,20.25
2022-10-01T21:41:37.812Z,20.11
2022-10-01T21:44:22.831Z,20.05
2022-10-01T21:46:58.123Z,19.82
2022-10-01T21:49:36.298Z,20.10
2022-10-01T21:52:20.960Z,20.03
2022-10-01T21:55:03.017Z,20.02
2022-10-01T21:57:54.472Z,20.11
2022-10-01T22:00:28.542Z,20.04
2022-10-01T22:03:23.345Z,20.11
2022-10-01T22:05:52.582Z,20.00
2022-10-01T22:08:28.219Z,19.88
2022-10-01T22:10:58.010Z,19.93
2022-10-01T22:13:29.979Z,19.94
2022-10-01T22:16:02.918Z,19.97
2022-10-01T22:18:36.364Z,19.88
2022-10-01T22:21:07.643Z,19.99
2022-10-01T22:23:38.229Z,19.98
2022-10-01T22:26:11.653Z,19.97
2022-10-01T22:28:39.098Z,19.92
2022-10-01T22:31:06.932Z,19.88
2022-10-01T22:33:38.006Z,19.96
2022-10-01T22:36:11.336Z,19.95
2022-10-01T22:38:54.188Z,19.89
2022-10-01T22:41:23.776Z,19.92
2022-10-01T22:43:50.339Z,19.93
2022-10-01T22:46:17.918Z,19.83
2022-10-01T22:49:14.197Z,19.92
2022-10-01T22:52:15.868Z,19.94
2022-10-01T22:54:48.101Z,19.91
2022-10-01T22:57:39.410Z,19.91
2022-10-01T23:00:09.620Z,19.89
2022-10-01T23:02:41.046Z,19.78
2022-10-01T23:05:48.626Z,19.83
2022-10-01T23:08:40.523Z,19.88
2022-10-01T23:11:14.335Z,19.91
2022-10-01T23:13:40.782Z,19.77
2022-10-01T23:16:36.939Z,19.87
2022-10-01T23:19:03.608Z,19.88
2022-10-01T23:21:53.441Z,19.87
2022-10-01T23:24:38.569Z,19.84
2022-10-01T23:27:30.271Z,19.82
2022-10-01T23:30:11.609Z,19.78
2022-10-01T23:33:29.243Z,19.79
2022-10-01T23:36:15.940Z,19.86
2022-10-01T23:38:59.477Z,19.85
2022-10-01T23:41:43.634Z,19.80
2022-10-01T23:44:14.361Z,19.75
2022-10-01T23:46:43.049Z,19.73
2022-10-01T23:49:17.535Z,19.79
2022-10-01T23:52:19.307Z,19.75
2022-10-01T23:54:53.573Z,19.80
2022-10-01T23:57:29.280Z,19.76
